createdAt,value
2019-04-10T00:00:02.949Z,8.70
2019-04-10T00:01:04.361Z,8.60
2019-04-10T00:02:02.932Z,9.40
2019-04-10T00:03:03.956Z,9.10
2019-04-10T00:04:02.981Z,9.70
2019-04-10T00:05:03.369Z,9.40
2019-04-10T00:06:02.886Z,10.00
2019-04-10T00:07:13.278Z,9.40
2019-04-10T00:08:04.059Z,9.00
2019-04-10T00:09:03.032Z,9.90
2019-04-10T00:10:03.460Z,9.40
2019-04-10T00:11:02.858Z,10.70
2019-04-10T00:12:02.837Z,7.90
2019-04-10T00:13:02.823Z,8.90
2019-04-10T00:14:02.979Z,10.60
2019-04-10T00:15:03.106Z,9.30
2019-04-10T00:16:03.552Z,9.10
2019-04-10T00:17:02.806Z,8.80
2019-04-10T00:18:02.743Z,9.50
2019-04-10T00:19:02.738Z,11.70
2019-04-10T00:20:02.794Z,9.60
2019-04-10T00:21:02.961Z,9.20
2019-04-10T00:22:02.908Z,8.20
2019-04-10T00:23:02.687Z,8.10
2019-04-10T00:24:03.801Z,8.60
2019-04-10T00:25:02.660Z,10.10
2019-04-10T00:26:03.620Z,9.80
2019-04-10T00:27:02.648Z,8.90
2019-04-10T00:28:03.250Z,9.40
2019-04-10T00:29:03.604Z,9.30
2019-04-10T00:30:02.911Z,9.30
2019-04-10T00:31:02.607Z,9.80
2019-04-10T00:32:03.685Z,8.70
2019-04-10T00:33:02.738Z,9.00
2019-04-10T00:34:02.559Z,9.70
2019-04-10T00:35:02.614Z,9.30
2019-04-10T00:36:03.651Z,10.10
2019-04-10T00:37:02.529Z,9.40
2019-04-10T00:38:02.512Z,7.90
2019-04-10T00:39:02.500Z,8.20
2019-04-10T00:40:03.360Z,10.10
2019-04-10T00:41:02.483Z,9.00
2019-04-10T00:42:03.031Z,8.30
2019-04-10T00:43:02.486Z,9.40
2019-04-10T00:44:03.529Z,9.90
2019-04-10T00:45:02.445Z,11.30
2019-04-10T00:46:02.443Z,9.50
2019-04-10T00:47:02.498Z,8.90
2019-04-10T00:48:02.415Z,10.30
2019-04-10T00:49:02.391Z,9.90
2019-04-10T00:50:02.439Z,10.20
2019-04-10T00:51:03.370Z,8.80
2019-04-10T00:52:02.357Z,10.20
2019-04-10T00:53:02.952Z,8.90
2019-04-10T00:54:02.466Z,8.20
2019-04-10T00:55:02.317Z,9.00
2019-04-10T00:56:02.320Z,8.30
2019-04-10T00:57:03.238Z,9.80
2019-04-10T00:58:02.302Z,9.00
2019-04-10T00:59:02.271Z,9.40
2019-04-10T01:00:02.275Z,10.00
2019-04-10T01:01:03.372Z,9.50
2019-04-10T01:02:02.529Z,8.60
2019-04-10T01:03:02.236Z,10.40
2019-04-10T01:04:02.720Z,8.80
2019-04-10T01:05:02.870Z,9.00
2019-04-10T01:06:02.195Z,8.60
2019-04-10T01:07:02.297Z,9.70
2019-04-10T01:08:02.390Z,8.00
2019-04-10T01:09:02.172Z,9.60
2019-04-10T01:10:02.175Z,9.90
2019-04-10T01:11:03.079Z,9.30
2019-04-10T01:12:02.157Z,8.60
2019-04-10T01:13:02.754Z,8.40
2019-04-10T01:14:02.337Z,8.00
2019-04-10T01:15:02.456Z,8.50
2019-04-10T01:16:02.781Z,8.80
2019-04-10T01:17:02.227Z,8.50
2019-04-10T01:18:02.484Z,8.30
2019-04-10T01:19:02.088Z,10.10
2019-04-10T01:20:02.051Z,10.10
2019-04-10T01:21:02.082Z,9.20
2019-04-10T01:22:03.060Z,9.30
2019-04-10T01:23:02.010Z,10.40
2019-04-10T01:24:02.002Z,11.90
2019-04-10T01:25:02.246Z,9.00
2019-04-10T01:26:03.011Z,7.80
2019-04-10T01:27:01.965Z,8.90
2019-04-10T01:28:02.703Z,10.30
2019-04-10T01:29:02.932Z,9.00
2019-04-10T01:30:02.410Z,9.60
2019-04-10T01:31:02.527Z,8.40
2019-04-10T01:32:01.910Z,9.30
2019-04-10T01:33:01.891Z,9.30
2019-04-10T01:34:03.135Z,8.90
2019-04-10T01:35:02.488Z,10.10
2019-04-10T01:36:02.780Z,10.10
2019-04-10T01:37:02.730Z,7.90
2019-04-10T01:38:05.583Z,10.50
2019-04-10T01:39:02.164Z,8.90
2019-04-10T01:40:02.563Z,10.30
2019-04-10T01:41:01.791Z,9.60
2019-04-10T01:42:01.785Z,8.90
2019-04-10T01:43:09.289Z,9.70
2019-04-10T01:44:03.454Z,8.60
2019-04-10T01:45:02.834Z,8.80
2019-04-10T01:46:02.096Z,8.60
2019-04-10T01:47:02.566Z,8.50
2019-04-10T01:48:01.719Z,8.60
2019-04-10T01:49:01.748Z,9.30
2019-04-10T01:50:02.308Z,8.40
2019-04-10T01:51:01.682Z,8.30
2019-04-10T01:52:01.670Z,10.10
2019-04-10T01:53:01.737Z,8.50
2019-04-10T01:54:02.614Z,9.50
2019-04-10T01:55:03.241Z,9.20
2019-04-10T01:56:03.105Z,10.10
2019-04-10T01:57:01.613Z,8.50
2019-04-10T01:58:01.606Z,9.40
2019-04-10T01:59:01.588Z,10.30
2019-04-10T02:00:02.732Z,9.00
2019-04-10T02:01:01.879Z,9.60
2019-04-10T02:02:01.550Z,9.50
2019-04-10T02:03:01.566Z,9.90
2019-04-10T02:04:02.545Z,9.00
2019-04-10T02:05:01.541Z,9.70
2019-04-10T02:06:01.511Z,9.90
2019-04-10T02:07:02.167Z,9.40
2019-04-10T02:08:08.624Z,8.80
2019-04-10T02:09:02.647Z,8.80
2019-04-10T02:10:01.660Z,9.30
2019-04-10T02:11:02.702Z,8.70
2019-04-10T02:12:02.083Z,7.40
2019-04-10T02:13:01.450Z,9.50
2019-04-10T02:14:01.444Z,8.40
2019-04-10T02:15:01.405Z,8.70
2019-04-10T02:16:01.398Z,7.80
2019-04-10T02:17:01.386Z,9.30
2019-04-10T02:18:01.388Z,9.10
2019-04-10T02:19:01.708Z,9.60
2019-04-10T02:20:01.346Z,9.50
2019-04-10T02:21:01.344Z,9.00
2019-04-10T02:22:02.350Z,9.20
2019-04-10T02:23:01.685Z,9.00
2019-04-10T02:24:02.853Z,9.70
2019-04-10T02:25:01.298Z,8.30
2019-04-10T02:26:01.288Z,9.20
2019-04-10T02:27:02.294Z,8.60
2019-04-10T02:28:01.268Z,8.60
2019-04-10T02:29:01.726Z,9.40
2019-04-10T02:30:01.315Z,10.00
2019-04-10T02:31:02.822Z,8.80
2019-04-10T02:32:02.129Z,8.80
2019-04-10T02:33:02.229Z,10.40
2019-04-10T02:34:01.644Z,8.80
2019-04-10T02:35:01.415Z,10.00
2019-04-10T02:36:01.445Z,7.60
2019-04-10T02:37:02.553Z,8.80
2019-04-10T02:38:22.288Z,9.20
2019-04-10T02:39:15.121Z,8.90
2019-04-10T02:40:03.601Z,8.20
2019-04-10T02:41:01.680Z,10.00
2019-04-10T02:42:02.659Z,9.20
2019-04-10T02:43:01.097Z,10.10
2019-04-10T02:44:02.657Z,7.60
2019-04-10T02:45:02.244Z,8.40
2019-04-10T02:46:02.216Z,7.20
2019-04-10T02:47:02.099Z,9.30
2019-04-10T02:48:01.710Z,8.30
2019-04-10T02:49:01.034Z,10.10
2019-04-10T02:50:03.255Z,8.50
2019-04-10T02:51:01.926Z,8.20
2019-04-10T02:52:01.007Z,8.50
2019-04-10T02:53:01.450Z,9.50
2019-04-10T02:54:02.372Z,8.80
2019-04-10T02:55:02.017Z,9.00
2019-04-10T02:56:00.953Z,8.30
2019-04-10T02:57:01.097Z,9.10
2019-04-10T02:58:02.438Z,8.30
2019-04-10T02:59:00.903Z,7.40
2019-04-10T03:00:03.079Z,8.90
2019-04-10T03:01:01.330Z,6.80
2019-04-10T03:02:02.332Z,9.70
2019-04-10T03:03:01.355Z,9.00
2019-04-10T03:04:01.487Z,8.40
2019-04-10T03:05:01.334Z,7.60
2019-04-10T03:06:00.823Z,7.80
2019-04-10T03:07:02.118Z,7.90
2019-04-10T03:08:01.109Z,7.40
2019-04-10T03:09:14.774Z,7.30
2019-04-10T03:10:12.700Z,8.70
2019-04-10T03:11:05.125Z,8.10
2019-04-10T03:12:01.789Z,7.80
2019-04-10T03:13:00.870Z,8.00
2019-04-10T03:14:01.671Z,9.30
2019-04-10T03:15:01.148Z,9.40
2019-04-10T03:16:00.756Z,8.20
2019-04-10T03:17:01.871Z,9.40
2019-04-10T03:18:00.787Z,8.50
2019-04-10T03:19:01.180Z,8.80
2019-04-10T03:20:00.693Z,8.60
2019-04-10T03:21:00.655Z,7.10
2019-04-10T03:22:01.727Z,8.20
2019-04-10T03:23:00.962Z,7.20
2019-04-10T03:24:00.640Z,7.60
2019-04-10T03:25:00.627Z,9.30
2019-04-10T03:26:01.477Z,8.70
2019-04-10T03:27:01.656Z,7.00
2019-04-10T03:28:00.917Z,6.70
2019-04-10T03:29:00.587Z,8.00
2019-04-10T03:30:00.581Z,8.30
2019-04-10T03:31:02.509Z,9.10
2019-04-10T03:32:02.111Z,7.40
2019-04-10T03:33:03.898Z,6.80
2019-04-10T03:34:03.581Z,8.30
2019-04-10T03:35:00.643Z,8.10
2019-04-10T03:36:00.485Z,6.90
2019-04-10T03:37:01.655Z,7.90
2019-04-10T03:38:01.549Z,7.80
2019-04-10T03:39:04.512Z,7.70
2019-04-10T03:40:01.473Z,7.80
2019-04-10T03:41:00.439Z,7.80
2019-04-10T03:42:00.929Z,8.00
2019-04-10T03:43:01.405Z,9.50
2019-04-10T03:44:00.614Z,7.70
2019-04-10T03:45:00.421Z,7.00
2019-04-10T03:46:01.283Z,6.80
2019-04-10T03:47:00.774Z,7.40
2019-04-10T03:48:00.360Z,6.60
2019-04-10T03:49:01.214Z,7.50
2019-04-10T03:50:00.438Z,6.50
2019-04-10T03:51:00.565Z,7.60
2019-04-10T03:52:00.999Z,7.80
2019-04-10T03:53:00.301Z,8.00
2019-04-10T03:54:00.280Z,6.20
2019-04-10T03:55:00.707Z,7.50
2019-04-10T03:56:01.189Z,7.40
2019-04-10T03:57:00.447Z,6.80
2019-04-10T03:58:00.778Z,6.70
2019-04-10T03:59:00.223Z,7.30
2019-04-10T04:00:01.446Z,9.00
2019-04-10T04:01:00.714Z,8.10
2019-04-10T04:02:00.188Z,8.10
2019-04-10T04:03:00.274Z,8.20
2019-04-10T04:04:00.172Z,6.60
2019-04-10T04:05:00.263Z,7.80
2019-04-10T04:06:00.236Z,7.90
2019-04-10T04:07:00.133Z,6.70
2019-04-10T04:08:01.189Z,7.20
2019-04-10T04:09:07.284Z,8.00
2019-04-10T04:10:02.471Z,6.60
2019-04-10T04:11:00.103Z,7.70
2019-04-10T04:12:00.169Z,7.20
2019-04-10T04:13:00.237Z,6.50
2019-04-10T04:14:00.075Z,8.20
2019-04-10T04:15:01.871Z,6.60
2019-04-10T04:16:00.274Z,6.00
2019-04-10T04:17:00.053Z,6.50
2019-04-10T04:18:00.345Z,8.20
2019-04-10T04:19:00.016Z,7.20
2019-04-10T04:19:59.994Z,5.80
2019-04-10T04:20:59.999Z,7.00
2019-04-10T04:22:00.617Z,7.10
2019-04-10T04:22:59.974Z,7.20
2019-04-10T04:23:59.938Z,6.20
2019-04-10T04:25:00.255Z,5.50
2019-04-10T04:26:00.914Z,7.30
2019-04-10T04:27:00.573Z,7.60
2019-04-10T04:28:00.462Z,9.10
2019-04-10T04:28:59.972Z,9.70
2019-04-10T04:29:59.886Z,10.40
2019-04-10T04:31:00.931Z,9.70
2019-04-10T04:31:59.854Z,11.30
2019-04-10T04:32:59.845Z,10.10
2019-04-10T04:33:59.863Z,12.90
2019-04-10T04:34:59.910Z,12.10
2019-04-10T04:35:59.963Z,11.90
2019-04-10T04:37:00.362Z,12.00
2019-04-10T04:38:00.446Z,13.40
2019-04-10T04:39:00.054Z,13.90
2019-04-10T04:40:00.469Z,12.80
2019-04-10T04:41:00.364Z,14.80
2019-04-10T04:42:00.776Z,13.30
2019-04-10T04:43:00.161Z,13.30
2019-04-10T04:43:59.726Z,13.20
2019-04-10T04:45:00.680Z,13.20
2019-04-10T04:45:59.711Z,12.50
2019-04-10T04:46:59.682Z,13.30
2019-04-10T04:47:59.800Z,13.10
2019-04-10T04:49:00.035Z,12.60
2019-04-10T04:49:59.653Z,12.30
2019-04-10T04:50:59.858Z,11.80
2019-04-10T04:52:00.241Z,12.70
2019-04-10T04:53:00.369Z,12.60
2019-04-10T04:53:59.606Z,13.50
2019-04-10T04:54:59.672Z,13.70
2019-04-10T04:55:59.697Z,14.10
2019-04-10T04:57:00.157Z,13.60
2019-04-10T04:57:59.840Z,13.90
2019-04-10T04:58:59.546Z,12.70
2019-04-10T04:59:59.552Z,12.40
2019-04-10T05:00:59.558Z,14.00
2019-04-10T05:01:59.512Z,12.30
2019-04-10T05:02:59.805Z,12.70
2019-04-10T05:04:00.365Z,11.00
2019-04-10T05:05:00.373Z,11.00
2019-04-10T05:06:00.369Z,10.90
2019-04-10T05:06:59.925Z,12.80
2019-04-10T05:08:02.518Z,10.30
2019-04-10T05:08:59.434Z,11.70
2019-04-10T05:10:01.614Z,11.00
2019-04-10T05:11:00.157Z,9.70
2019-04-10T05:11:59.417Z,8.40
2019-04-10T05:12:59.918Z,9.40
2019-04-10T05:13:59.400Z,12.70
2019-04-10T05:15:00.366Z,10.10
2019-04-10T05:15:59.548Z,9.30
2019-04-10T05:16:59.559Z,9.20
2019-04-10T05:17:59.719Z,9.10
2019-04-10T05:18:59.597Z,9.60
2019-04-10T05:19:59.325Z,8.80
2019-04-10T05:20:59.298Z,9.80
2019-04-10T05:21:59.545Z,9.70
2019-04-10T05:22:59.897Z,8.00
2019-04-10T05:23:59.651Z,7.40
2019-04-10T05:24:59.249Z,6.90
2019-04-10T05:26:00.471Z,7.10
2019-04-10T05:26:59.357Z,6.60
2019-04-10T05:27:59.423Z,7.50
2019-04-10T05:28:59.205Z,6.50
2019-04-10T05:29:59.952Z,5.90
2019-04-10T05:30:59.180Z,6.30
2019-04-10T05:31:59.177Z,7.00
2019-04-10T05:32:59.785Z,5.50
2019-04-10T05:33:59.148Z,6.80
2019-04-10T05:34:59.140Z,7.30
2019-04-10T05:35:59.266Z,5.10
2019-04-10T05:36:59.114Z,6.20
2019-04-10T05:37:59.120Z,5.60
2019-04-10T05:38:59.994Z,5.40
2019-04-10T05:39:59.269Z,5.90
2019-04-10T05:40:59.272Z,5.90
2019-04-10T05:42:01.897Z,5.30
2019-04-10T05:42:59.614Z,5.70
2019-04-10T05:43:59.111Z,6.00
2019-04-10T05:44:59.033Z,4.90
2019-04-10T05:45:59.304Z,4.80
2019-04-10T05:46:59.073Z,5.20
2019-04-10T05:47:59.081Z,4.80
2019-04-10T05:49:00.082Z,4.60
2019-04-10T05:49:59.790Z,5.30
2019-04-10T05:51:03.009Z,4.40
2019-04-10T05:51:59.965Z,4.40
2019-04-10T05:53:00.032Z,4.20
2019-04-10T05:54:00.062Z,5.40
2019-04-10T05:54:59.935Z,4.40
2019-04-10T05:55:58.919Z,5.80
2019-04-10T05:56:59.044Z,3.50
2019-04-10T05:57:59.453Z,6.30
2019-04-10T05:58:58.882Z,5.30
2019-04-10T05:59:58.867Z,4.60
2019-04-10T06:00:58.932Z,5.50
2019-04-10T06:01:59.011Z,5.70
2019-04-10T06:02:58.827Z,5.40
2019-04-10T06:03:58.910Z,5.70
2019-04-10T06:04:58.804Z,5.70
2019-04-10T06:06:01.018Z,5.70
2019-04-10T06:06:58.963Z,6.20
2019-04-10T06:07:59.309Z,6.20
2019-04-10T06:08:58.779Z,6.40
2019-04-10T06:10:04.343Z,6.30
2019-04-10T06:11:00.247Z,5.70
2019-04-10T06:11:58.736Z,6.60
2019-04-10T06:12:58.729Z,6.80
2019-04-10T06:13:59.119Z,7.10
2019-04-10T06:14:58.875Z,6.10
2019-04-10T06:15:59.364Z,8.10
2019-04-10T06:17:02.499Z,6.50
2019-04-10T06:17:59.711Z,5.40
2019-04-10T06:18:59.763Z,5.80
2019-04-10T06:19:58.727Z,6.80
2019-04-10T06:20:58.864Z,6.40
2019-04-10T06:21:58.615Z,7.00
2019-04-10T06:22:59.106Z,5.60
2019-04-10T06:23:58.603Z,5.40
2019-04-10T06:24:58.613Z,7.50
2019-04-10T06:25:58.597Z,6.70
2019-04-10T06:26:59.618Z,5.70
2019-04-10T06:27:58.996Z,5.70
2019-04-10T06:28:58.949Z,5.80
2019-04-10T06:29:59.433Z,6.60
2019-04-10T06:30:58.667Z,7.90
2019-04-10T06:31:58.507Z,5.70
2019-04-10T06:32:58.486Z,6.20
2019-04-10T06:33:58.620Z,6.50
2019-04-10T06:34:59.511Z,7.30
2019-04-10T06:35:58.455Z,6.80
2019-04-10T06:36:58.462Z,5.90
2019-04-10T06:37:58.818Z,6.90
2019-04-10T06:38:58.446Z,5.00
2019-04-10T06:40:08.004Z,7.00
2019-04-10T06:40:59.934Z,4.50
2019-04-10T06:41:58.390Z,4.90
2019-04-10T06:42:59.391Z,6.80
2019-04-10T06:43:58.373Z,6.80
2019-04-10T06:44:58.523Z,4.70
2019-04-10T06:45:58.345Z,5.50
2019-04-10T06:46:58.352Z,5.20
2019-04-10T06:47:58.475Z,7.30
2019-04-10T06:48:58.518Z,6.40
2019-04-10T06:49:58.808Z,6.30
2019-04-10T06:50:58.297Z,5.10
2019-04-10T06:51:58.270Z,4.90
2019-04-10T06:52:58.854Z,5.40
2019-04-10T06:54:02.770Z,7.80
2019-04-10T06:54:59.244Z,5.10
2019-04-10T06:55:58.230Z,4.30
2019-04-10T06:56:58.685Z,4.70
2019-04-10T06:57:59.306Z,6.00
2019-04-10T06:58:58.358Z,7.20
2019-04-10T06:59:59.759Z,7.70
2019-04-10T07:01:01.375Z,6.30
2019-04-10T07:02:11.331Z,5.20
2019-04-10T07:02:59.179Z,5.30
2019-04-10T07:04:02.780Z,5.50
2019-04-10T07:05:04.683Z,5.30
2019-04-10T07:06:07.810Z,4.90
2019-04-10T07:07:06.520Z,4.60
2019-04-10T07:08:09.167Z,5.00
2019-04-10T07:08:59.217Z,4.30
2019-04-10T07:09:58.570Z,4.80
2019-04-10T07:11:05.079Z,5.10
2019-04-10T07:12:02.903Z,5.20
2019-04-10T07:12:59.652Z,5.40
2019-04-10T07:13:58.531Z,5.10
2019-04-10T07:14:58.323Z,4.10
2019-04-10T07:15:58.575Z,4.50
2019-04-10T07:17:04.243Z,4.70
2019-04-10T07:17:58.984Z,5.40
2019-04-10T07:18:59.081Z,4.50
2019-04-10T07:19:57.981Z,4.60
2019-04-10T07:21:01.004Z,5.00
2019-04-10T07:22:00.330Z,4.50
2019-04-10T07:22:58.270Z,4.20
2019-04-10T07:24:03.233Z,5.40
2019-04-10T07:24:58.921Z,3.90
2019-04-10T07:25:58.350Z,4.20
2019-04-10T07:27:02.251Z,4.80
2019-04-10T07:27:58.867Z,4.60
2019-04-10T07:28:58.904Z,4.50
2019-04-10T07:29:59.465Z,5.40
2019-04-10T07:31:01.792Z,4.10
2019-04-10T07:31:58.842Z,4.60
2019-04-10T07:32:57.821Z,4.50
2019-04-10T07:33:57.796Z,4.40
2019-04-10T07:34:59.986Z,4.60
2019-04-10T07:35:57.771Z,6.00
2019-04-10T07:36:58.116Z,4.10
2019-04-10T07:37:58.460Z,3.80
2019-04-10T07:38:57.757Z,4.50
2019-04-10T07:40:01.821Z,4.80
2019-04-10T07:40:58.930Z,4.70
2019-04-10T07:41:57.851Z,6.40
2019-04-10T07:42:58.705Z,3.60
2019-04-10T07:45:12.996Z,5.00
2019-04-10T07:46:13.187Z,4.70
2019-04-10T07:47:13.340Z,5.60
2019-04-10T07:48:12.956Z,5.70
2019-04-10T07:49:12.931Z,4.70
2019-04-10T07:50:14.128Z,5.60
2019-04-10T07:51:13.537Z,4.70
2019-04-10T07:53:04.504Z,4.70
2019-04-10T07:54:04.486Z,5.80
2019-04-10T07:55:04.541Z,4.20
2019-04-10T07:56:09.234Z,5.50
2019-04-10T07:57:06.309Z,5.80
2019-04-10T07:58:04.900Z,5.60
2019-04-10T07:59:04.690Z,5.70
2019-04-10T08:00:04.420Z,6.00
2019-04-10T08:01:05.172Z,5.90
2019-04-10T08:02:07.359Z,5.40
2019-04-10T08:03:04.382Z,5.50
2019-04-10T08:04:04.370Z,5.90
2019-04-10T08:05:04.413Z,6.50
2019-04-10T08:06:04.637Z,6.30
2019-04-10T08:07:05.203Z,5.70
2019-04-10T08:08:05.159Z,6.50
2019-04-10T08:09:04.324Z,9.90
2019-04-10T08:10:05.555Z,6.00
2019-04-10T08:11:05.062Z,7.90
2019-04-10T08:12:05.107Z,5.90
2019-04-10T08:13:04.567Z,6.70
2019-04-10T08:14:07.679Z,6.70
2019-04-10T08:15:04.882Z,6.90
2019-04-10T08:16:04.241Z,6.20
2019-04-10T08:17:04.224Z,7.30
2019-04-10T08:18:04.571Z,6.40
2019-04-10T08:19:04.200Z,5.10
2019-04-10T08:20:04.194Z,4.90
2019-04-10T08:21:04.958Z,6.70
2019-04-10T08:22:04.165Z,5.90
2019-04-10T08:23:04.160Z,5.70
2019-04-10T08:24:04.144Z,6.10
2019-04-10T08:25:04.435Z,6.00
2019-04-10T08:26:04.137Z,7.10
2019-04-10T08:27:05.273Z,5.60
2019-04-10T08:28:04.098Z,7.50
2019-04-10T08:29:04.088Z,6.70
2019-04-10T08:30:05.261Z,6.40
2019-04-10T08:31:11.279Z,5.70
2019-04-10T08:32:04.079Z,8.80
2019-04-10T08:33:04.803Z,6.70
2019-04-10T08:34:04.058Z,6.50
2019-04-10T08:35:04.649Z,7.70
2019-04-10T08:36:04.020Z,5.80
2019-04-10T08:37:04.041Z,7.10
2019-04-10T08:38:03.988Z,7.80
2019-04-10T08:39:04.653Z,8.50
2019-04-10T08:40:05.265Z,7.00
2019-04-10T08:41:05.011Z,7.00
2019-04-10T08:42:03.941Z,4.90
2019-04-10T08:43:04.176Z,7.40
2019-04-10T08:44:04.419Z,5.80
2019-04-10T08:45:04.928Z,7.70
2019-04-10T08:46:03.899Z,6.10
2019-04-10T08:47:03.926Z,5.20
2019-04-10T08:48:03.889Z,5.20
2019-04-10T08:49:03.873Z,6.50
2019-04-10T08:50:03.859Z,7.30
2019-04-10T08:51:03.848Z,5.80
2019-04-10T08:52:04.079Z,5.50
2019-04-10T08:53:04.132Z,5.70
2019-04-10T08:54:03.836Z,6.90
2019-04-10T08:55:03.887Z,6.40
2019-04-10T08:56:04.494Z,5.90
2019-04-10T08:57:03.798Z,5.40
2019-04-10T08:58:03.787Z,6.10
2019-04-10T08:59:03.764Z,5.30
2019-04-10T09:00:04.622Z,6.20
2019-04-10T09:01:03.939Z,5.90
2019-04-10T09:02:04.013Z,6.70
2019-04-10T09:03:03.712Z,6.20
2019-04-10T09:04:03.722Z,5.90
2019-04-10T09:05:03.734Z,8.70
2019-04-10T09:06:03.858Z,6.80
2019-04-10T09:07:05.036Z,6.40
2019-04-10T09:08:04.530Z,6.60
2019-04-10T09:09:03.642Z,7.10
2019-04-10T09:10:03.852Z,5.80
2019-04-10T09:11:03.635Z,5.60
2019-04-10T09:12:03.617Z,5.50
2019-04-10T09:13:04.286Z,5.00
2019-04-10T09:14:03.584Z,5.00
2019-04-10T09:15:03.571Z,5.70
2019-04-10T09:16:04.545Z,7.50
2019-04-10T09:17:03.892Z,5.30
2019-04-10T09:18:04.069Z,5.00
2019-04-10T09:19:03.565Z,5.10
2019-04-10T09:20:04.476Z,4.20
2019-04-10T09:21:03.507Z,4.80
2019-04-10T09:22:03.782Z,5.10
2019-04-10T09:23:29.428Z,4.80
2019-04-10T09:24:04.777Z,5.90
2019-04-10T09:25:03.462Z,5.40
2019-04-10T09:26:03.812Z,5.70
2019-04-10T09:27:04.606Z,6.50
2019-04-10T09:28:04.313Z,4.80
2019-04-10T09:29:04.528Z,5.30
2019-04-10T09:30:04.536Z,5.90
2019-04-10T09:31:03.393Z,5.70
2019-04-10T09:32:04.378Z,4.40
2019-04-10T09:33:15.663Z,6.10
2019-04-10T09:34:04.387Z,5.60
2019-04-10T09:35:04.428Z,7.30
2019-04-10T09:36:03.348Z,5.20
2019-04-10T09:37:03.935Z,6.70
2019-04-10T09:38:04.210Z,6.40
2019-04-10T09:39:03.335Z,6.70
2019-04-10T09:40:03.588Z,5.70
2019-04-10T09:41:03.718Z,6.10
2019-04-10T09:42:03.497Z,6.70
2019-04-10T09:43:03.270Z,4.70
2019-04-10T09:44:04.461Z,6.30
2019-04-10T09:45:03.247Z,7.80
2019-04-10T09:46:04.193Z,6.00
2019-04-10T09:47:03.241Z,6.30
2019-04-10T09:48:04.200Z,5.50
2019-04-10T09:49:03.207Z,5.80
2019-04-10T09:50:03.196Z,5.90
2019-04-10T09:51:03.178Z,6.30
2019-04-10T09:52:03.178Z,4.70
2019-04-10T09:53:04.143Z,5.30
2019-04-10T09:54:03.726Z,7.60
2019-04-10T09:55:03.238Z,6.20
2019-04-10T09:56:03.234Z,5.80
2019-04-10T09:57:03.360Z,6.70
2019-04-10T09:58:03.110Z,4.60
2019-04-10T09:59:03.206Z,4.90
2019-04-10T10:00:03.241Z,4.90
2019-04-10T10:01:03.146Z,6.60
2019-04-10T10:02:03.067Z,5.80
2019-04-10T10:03:03.482Z,4.40
2019-04-10T10:04:03.049Z,5.40
2019-04-10T10:05:04.190Z,5.50
2019-04-10T10:06:03.606Z,4.80
2019-04-10T10:07:03.981Z,5.00
2019-04-10T10:08:04.265Z,4.30
2019-04-10T10:09:04.073Z,5.20
2019-04-10T10:10:02.995Z,4.30
2019-04-10T10:11:04.025Z,5.10
2019-04-10T10:12:03.179Z,5.60
2019-04-10T10:13:03.326Z,4.70
2019-04-10T10:14:04.015Z,4.20
2019-04-10T10:15:02.962Z,4.30
2019-04-10T10:16:02.965Z,4.40
2019-04-10T10:17:02.889Z,5.30
2019-04-10T10:18:03.354Z,3.40
2019-04-10T10:19:02.866Z,3.60
2019-04-10T10:20:03.702Z,4.60
2019-04-10T10:21:04.032Z,4.00
2019-04-10T10:22:04.675Z,8.20
2019-04-10T10:23:03.330Z,5.40
2019-04-10T10:24:02.819Z,4.10
2019-04-10T10:25:02.986Z,4.70
2019-04-10T10:26:03.809Z,4.30
2019-04-10T10:27:02.778Z,3.90
2019-04-10T10:28:02.929Z,3.80
2019-04-10T10:29:02.774Z,4.20
2019-04-10T10:30:02.769Z,4.10
2019-04-10T10:31:02.728Z,5.10
2019-04-10T10:32:02.724Z,4.30
2019-04-10T10:33:03.633Z,3.90
2019-04-10T10:34:03.806Z,3.90
2019-04-10T10:35:03.126Z,3.60
2019-04-10T10:36:03.313Z,4.40
2019-04-10T10:37:03.855Z,3.60
2019-04-10T10:38:03.844Z,3.60
2019-04-10T10:39:09.654Z,3.80
2019-04-10T10:40:03.649Z,3.40
2019-04-10T10:41:02.620Z,3.90
2019-04-10T10:42:03.302Z,3.50
2019-04-10T10:43:02.620Z,4.00
2019-04-10T10:44:02.623Z,3.20
2019-04-10T10:45:02.918Z,3.10
2019-04-10T10:46:03.048Z,4.10
2019-04-10T10:47:02.573Z,4.30
2019-04-10T10:48:03.322Z,3.20
2019-04-10T10:49:02.555Z,3.40
2019-04-10T10:50:02.543Z,4.90
2019-04-10T10:51:02.524Z,4.60
2019-04-10T10:52:03.520Z,3.50
2019-04-10T10:53:02.486Z,3.00
2019-04-10T10:54:03.886Z,3.90
2019-04-10T10:55:02.463Z,3.30
2019-04-10T10:56:02.451Z,5.70
2019-04-10T10:57:02.662Z,4.20
2019-04-10T10:58:02.434Z,4.10
2019-04-10T10:59:02.960Z,7.60
2019-04-10T11:00:02.405Z,3.90
2019-04-10T11:01:03.331Z,3.10
2019-04-10T11:02:02.456Z,4.00
2019-04-10T11:03:02.388Z,4.70
2019-04-10T11:04:02.618Z,3.30
2019-04-10T11:06:03.553Z,6.00
2019-04-10T11:07:02.681Z,6.10
2019-04-10T11:08:02.773Z,3.50
2019-04-10T11:09:02.322Z,4.10
2019-04-10T11:10:02.298Z,4.30
2019-04-10T11:11:02.308Z,3.70
2019-04-10T11:12:03.552Z,5.50
2019-04-10T11:13:02.399Z,3.30
2019-04-10T11:14:03.531Z,7.90
2019-04-10T11:15:02.653Z,3.70
2019-04-10T11:17:03.461Z,5.60
2019-04-10T11:18:02.282Z,4.70
2019-04-10T11:19:02.782Z,6.40
2019-04-10T11:20:02.727Z,5.40
2019-04-10T11:21:06.189Z,4.70
2019-04-10T11:22:03.171Z,8.20
2019-04-10T11:23:02.153Z,7.30
2019-04-10T11:24:03.070Z,5.60
2019-04-10T11:25:02.142Z,5.60
2019-04-10T11:26:02.317Z,6.80
2019-04-10T11:27:02.766Z,6.10
2019-04-10T11:28:03.871Z,5.30
2019-04-10T11:29:03.629Z,5.20
2019-04-10T11:30:03.493Z,4.70
2019-04-10T11:31:02.065Z,5.50
2019-04-10T11:32:02.049Z,4.80
2019-04-10T11:33:02.595Z,5.70
2019-04-10T11:34:02.816Z,8.10
2019-04-10T11:35:03.330Z,5.30
2019-04-10T11:36:02.024Z,6.50
2019-04-10T11:38:05.796Z,9.60
2019-04-10T11:39:12.066Z,5.60
2019-04-10T11:40:05.110Z,5.80
2019-04-10T11:41:03.020Z,5.10
2019-04-10T11:42:02.025Z,4.40
2019-04-10T11:43:04.687Z,5.00
2019-04-10T11:44:02.728Z,4.60
2019-04-10T11:45:04.012Z,5.10
2019-04-10T11:46:02.726Z,4.90
2019-04-10T11:47:02.944Z,4.90
2019-04-10T11:48:02.594Z,4.40
2019-04-10T11:49:02.622Z,5.50
2019-04-10T11:50:05.997Z,5.20
2019-04-10T11:51:03.280Z,5.00
2019-04-10T11:52:03.435Z,5.70
2019-04-10T11:53:02.617Z,6.90
2019-04-10T11:54:04.494Z,7.50
2019-04-10T11:55:10.229Z,6.30
2019-04-10T11:56:05.407Z,5.60
2019-04-10T11:57:04.142Z,5.90
2019-04-10T11:58:02.910Z,5.20
2019-04-10T11:59:04.265Z,4.70
2019-04-10T12:00:04.192Z,4.30
2019-04-10T12:01:04.550Z,4.90
2019-04-10T12:02:05.807Z,6.60
2019-04-10T12:03:01.735Z,6.00
2019-04-10T12:04:02.685Z,6.70
2019-04-10T12:05:08.911Z,4.90
2019-04-10T12:06:04.268Z,5.30
2019-04-10T12:07:02.232Z,6.50
2019-04-10T12:08:28.317Z,7.00
2019-04-10T12:09:37.662Z,6.30
2019-04-10T12:12:01.679Z,6.30
2019-04-10T12:13:01.936Z,5.40
2019-04-10T12:14:01.588Z,5.50
2019-04-10T12:15:01.980Z,8.30
2019-04-10T12:16:01.567Z,4.90
2019-04-10T12:17:01.563Z,5.30
2019-04-10T12:18:02.304Z,5.30
2019-04-10T12:19:02.671Z,4.90
2019-04-10T12:20:02.829Z,5.60
2019-04-10T12:21:01.930Z,5.30
2019-04-10T12:22:01.495Z,5.30
2019-04-10T12:23:02.826Z,5.40
2019-04-10T12:24:01.514Z,5.90
2019-04-10T12:25:02.837Z,4.90
2019-04-10T12:26:01.457Z,5.30
2019-04-10T12:27:02.445Z,4.50
2019-04-10T12:28:01.424Z,4.40
2019-04-10T12:29:02.515Z,5.30
2019-04-10T12:30:01.402Z,4.70
2019-04-10T12:31:01.777Z,5.10
2019-04-10T12:32:01.387Z,5.80
2019-04-10T12:33:01.366Z,5.40
2019-04-10T12:34:01.531Z,4.90
2019-04-10T12:35:01.547Z,5.30
2019-04-10T12:36:02.384Z,6.10
2019-04-10T12:37:01.323Z,5.60
2019-04-10T12:38:04.474Z,5.70
2019-04-10T12:39:02.299Z,5.70
2019-04-10T12:40:01.472Z,4.60
2019-04-10T12:41:01.420Z,7.80
2019-04-10T12:42:01.339Z,7.50
2019-04-10T12:43:01.257Z,6.10
2019-04-10T12:44:01.246Z,6.30
2019-04-10T12:45:01.979Z,6.30
2019-04-10T12:46:02.298Z,6.90
2019-04-10T12:47:01.650Z,7.50
2019-04-10T12:48:02.127Z,7.30
2019-04-10T12:49:02.459Z,6.20
2019-04-10T12:50:01.178Z,6.40
2019-04-10T12:51:01.440Z,6.10
2019-04-10T12:52:01.158Z,6.80
2019-04-10T12:53:01.154Z,7.20
2019-04-10T12:54:01.247Z,6.80
2019-04-10T12:55:01.940Z,7.70
2019-04-10T12:56:01.972Z,9.00
2019-04-10T12:57:02.309Z,7.70
2019-04-10T12:58:09.529Z,10.00
2019-04-10T12:59:02.076Z,6.90
2019-04-10T13:00:04.518Z,8.00
2019-04-10T13:01:01.089Z,6.90
2019-04-10T13:02:01.044Z,6.90
2019-04-10T13:03:01.034Z,9.70
2019-04-10T13:04:01.029Z,8.60
2019-04-10T13:05:01.013Z,8.80
2019-04-10T13:06:01.902Z,7.70
2019-04-10T13:07:01.169Z,9.30
2019-04-10T13:08:13.846Z,9.20
2019-04-10T13:09:07.847Z,9.80
2019-04-10T13:10:02.573Z,11.90
2019-04-10T13:11:01.131Z,7.60
2019-04-10T13:12:00.940Z,10.00
2019-04-10T13:13:01.915Z,9.30
2019-04-10T13:14:02.147Z,9.90
2019-04-10T13:15:01.297Z,9.60
2019-04-10T13:16:01.525Z,9.10
2019-04-10T13:17:00.910Z,7.30
2019-04-10T13:18:00.872Z,9.00
2019-04-10T13:19:00.862Z,9.00
2019-04-10T13:20:01.843Z,9.00
2019-04-10T13:21:00.832Z,9.70
2019-04-10T13:22:02.020Z,9.70